CYHK - Gjoa Haven Airport

Pirep is a free, collaborative database of all public and private airports located within the United States. All pilots are welcome to contribute, edit, and improve any airport they have local knowledge about, no registration required.
Are you familiar with this airport? Help out other pilots by adding your local knowledge.
Uploaded photos will be licensed under a CC BY-SA 4.0 license. Please only upload photos you have the rights to use.
Tags
Public
Undocu­mented
METAR / TAF
Webcam
Edit Tags
Food
Camping
Lodging
Car Rental
Bicycles
Swimming
Golfing
Fishing
Hot Springs
Museum
Flying Clubs
Airpark
Upcoming Events
No upcoming events. Is anything happening here soon?
*
*
*

Where exactly on/near the airport is this event taking place?

Is there a webpage with more information for this event?

Who should be contacted for more information?

What is this event all about?

Repeat every
Description
Transient Parking
Fuel Location
Landing & Tie-down Fees
Crew Car Availability
Flying Clubs
WiFi Access
Airport Statistics
Location: Gjoa Haven, Nunavut
Elevation: 152ft
Runway 13T/31T: 4,400ft
Warning: This airport was imported from a non-authoritative source. It's public/private status may not be accurate.
Access: Open to the public
Current Weather — LIFR
  • Weather data is strictly informational and not for flight planning purposes.
  • METAR
    2024-06-17 21:14:00 MDT
    Ceiling Wind Temperature Dewpoint Weather Visbility
    100ft 150° @ 6kt 30°F 30°F Mist 0SM
    Clouds: Broken @ 100ft
    Raw: CYHK 180314Z AUTO 15006KT 5/8SM BR BKN001 M01/M01 A2969 RMK VIS VRB 1/8-3 SLP059
  • TAF
    2024-06-17 18:00:00 MDT – 2024-06-17 20:00:00 MDT
    Ceiling Wind Weather Visbility
    Sky clear 180° @ 12kt N/A 6SM
    Clouds: Scattered @ 400ft, Scattered @ 2,000ft
    Raw: TAF CYHK 172340Z 1800/1812 18012KT P6SM SCT004 SCT020 TEMPO 1800/1802 1/2SM FG VV002 FM180200 19010KT P6SM SCT003 BKN010 OVC025 TEMPO 1802/1812 3/4SM -SN BR BKN004 OVC010 PROB30 1802/1812 1/2SM -FZDZ FZFG VV002 RMK NXT FCST BY 180600Z
  • TAF
    2024-06-17 18:00:00 MDT – 2024-06-17 20:00:00 MDT
    Ceiling Wind Weather Visbility
    200ft ° @ kt Fog 0SM
    Clouds: Obscured @ 200ft
    Raw: TAF CYHK 172340Z 1800/1812 18012KT P6SM SCT004 SCT020 TEMPO 1800/1802 1/2SM FG VV002 FM180200 19010KT P6SM SCT003 BKN010 OVC025 TEMPO 1802/1812 3/4SM -SN BR BKN004 OVC010 PROB30 1802/1812 1/2SM -FZDZ FZFG VV002 RMK NXT FCST BY 180600Z
  • TAF
    2024-06-17 20:00:00 MDT – 2024-06-18 06:00:00 MDT
    Ceiling Wind Weather Visbility
    1,000ft 190° @ 10kt N/A 6SM
    Clouds: Scattered @ 300ft, Broken @ 1,000ft, Overcast @ 2,500ft
    Raw: TAF CYHK 172340Z 1800/1812 18012KT P6SM SCT004 SCT020 TEMPO 1800/1802 1/2SM FG VV002 FM180200 19010KT P6SM SCT003 BKN010 OVC025 TEMPO 1802/1812 3/4SM -SN BR BKN004 OVC010 PROB30 1802/1812 1/2SM -FZDZ FZFG VV002 RMK NXT FCST BY 180600Z
  • TAF
    2024-06-17 20:00:00 MDT – 2024-06-18 06:00:00 MDT
    Ceiling Wind Weather Visbility
    400ft ° @ kt Light snow, mist 0SM
    Clouds: Broken @ 400ft, Overcast @ 1,000ft
    Raw: TAF CYHK 172340Z 1800/1812 18012KT P6SM SCT004 SCT020 TEMPO 1800/1802 1/2SM FG VV002 FM180200 19010KT P6SM SCT003 BKN010 OVC025 TEMPO 1802/1812 3/4SM -SN BR BKN004 OVC010 PROB30 1802/1812 1/2SM -FZDZ FZFG VV002 RMK NXT FCST BY 180600Z
  • TAF
    2024-06-17 20:00:00 MDT – 2024-06-18 06:00:00 MDT
    Ceiling Wind Weather Visbility
    200ft ° @ kt Light freezing drizzle, freezing fog 0SM
    Clouds: Obscured @ 200ft
    Raw: TAF CYHK 172340Z 1800/1812 18012KT P6SM SCT004 SCT020 TEMPO 1800/1802 1/2SM FG VV002 FM180200 19010KT P6SM SCT003 BKN010 OVC025 TEMPO 1802/1812 3/4SM -SN BR BKN004 OVC010 PROB30 1802/1812 1/2SM -FZDZ FZFG VV002 RMK NXT FCST BY 180600Z
Click/tap to add an annotation marker to the map
Direct links to live image URLs will be displayed inline on this page. URLs to separate webpages will be linked to.
URL:
Direct links to live image URLs will be displayed inline on this page. URLs to separate webpages will be linked to.
URL:
Comments
Leave a comment What was your experience like at this airport?